Flight Track Log - Related Links

Times and Time Zones

All times are in EDT time to prevent confusion due to time zone crossing. See the AWI3780 flight status page for this flight to view local times or setup timezone preferences in your user account.

Time Position Orientation Groundspeed Altitude Reporting Facility
EDT Latitude Longitude Course Direction KTS MPH feet Rate Location/Type
Thu 03:25:20 PM 44.4611 -73.1586 259° West 11 13 25,000  Level Boston Center
Thu 03:27:00 PM 44.3080 -73.2102 196° South  Level FlightAware Approximate
Thu 03:34:00 PM 43.6669 -73.4527 195° South  Level FlightAware Approximate
Thu 03:35:00 PM 43.5750 -73.4861 194° South  Level FlightAware Approximate
Thu 03:36:00 PM 43.4827 -73.5169 194° South  Level FlightAware Approximate
Thu 03:37:00 PM 43.3903 -73.5477 194° South  Level FlightAware Approximate
Thu 03:38:00 PM 43.2990 -73.5838 196° South  Level FlightAware Approximate
Thu 03:39:00 PM 43.2078 -73.6200 195° South  Level FlightAware Approximate
Thu 03:40:00 PM 43.1160 -73.6539 195° South  Level FlightAware Approximate
Thu 03:41:00 PM 43.0243 -73.6877 195° South  Level FlightAware Approximate
Thu 03:42:00 PM 42.9325 -73.7214 195° South  Level FlightAware Approximate
Thu 03:43:00 PM 42.8412 -73.7569 196° South  Level FlightAware Approximate
Thu 03:44:00 PM 42.7500 -73.7934 196° South  Level FlightAware Approximate
Thu 03:45:00 PM 42.6932 -73.8904 239° Southwest  Level FlightAware Approximate
Thu 03:46:00 PM 42.6421 -73.9993 236° Southwest  Level FlightAware Approximate
Thu 03:47:00 PM 42.5886 -74.1061 236° Southwest  Level FlightAware Approximate
Thu 03:48:00 PM 42.5372 -74.2145 237° Southwest  Level FlightAware Approximate
Thu 03:49:00 PM 42.4858 -74.3229 237° Southwest  Level FlightAware Approximate
Thu 03:50:00 PM 42.4344 -74.4312 237° Southwest  Level FlightAware Approximate
Thu 03:51:00 PM 42.3802 -74.5369 235° Southwest  Level FlightAware Approximate
Thu 03:52:00 PM 42.3260 -74.6424 235° Southwest  Level FlightAware Approximate
Thu 03:53:00 PM 42.2716 -74.7478 235° Southwest  Level FlightAware Approximate
Thu 03:54:00 PM 42.2171 -74.8529 235° Southwest  Level FlightAware Approximate
Thu 03:55:00 PM 42.1605 -74.9548 210° Southwest  Level FlightAware Approximate
Thu 03:56:00 PM 42.0780 -75.0184 210° Southwest  Level FlightAware Approximate
Thu 03:57:00 PM 41.9955 -75.0818 210° Southwest  Level FlightAware Approximate
Thu 03:58:00 PM 41.9215 -75.1594 228° Southwest  Level FlightAware Approximate
Thu 03:59:00 PM 41.8522 -75.2174 210° Southwest  Level FlightAware Approximate
Thu 04:00:00 PM 41.7814 -75.2730 210° Southwest  Level FlightAware Approximate
Thu 04:01:00 PM 41.7107 -75.3284 210° Southwest  Level FlightAware Approximate
Thu 04:02:00 PM 41.6398 -75.3837 210° Southwest  Level FlightAware Approximate
Thu 04:03:00 PM 41.5690 -75.4389 210° Southwest  Level FlightAware Approximate
Thu 04:04:00 PM 41.4969 -75.4910 207° Southwest  Level FlightAware Approximate
Thu 04:05:00 PM 41.4298 -75.5535 217° Southwest  Level FlightAware Approximate
Thu 04:06:00 PM 41.3581 -75.6058 207° Southwest  Level FlightAware Approximate
Thu 04:07:00 PM 41.2881 -75.6619 217° Southwest  Level FlightAware Approximate
Thu 04:08:00 PM 41.2115 -75.6833 180° South  Level FlightAware Approximate
Thu 04:09:00 PM 41.1295 -75.6833 180° South  Level FlightAware Approximate
Thu 04:10:00 PM 41.0475 -75.6833 180° South  Level FlightAware Approximate
Thu 04:11:00 PM 40.9655 -75.6833 180° South  Level FlightAware Approximate
Thu 04:12:00 PM 40.8835 -75.6833 180° South  Level FlightAware Approximate
Thu 04:13:00 PM 40.8016 -75.6833 180° South  Level FlightAware Approximate
Thu 04:14:00 PM 40.7196 -75.6833 180° South  Level FlightAware Approximate
Thu 04:15:00 PM 40.6376 -75.6833 180° South  Level FlightAware Approximate
Thu 04:16:00 PM 40.5611 -75.6707 120° Southeast  Level FlightAware Approximate
Thu 04:17:00 PM 40.5203 -75.5771 120° Southeast  Level FlightAware Approximate
Thu 04:18:00 PM 40.4617 -75.4434 120° Southeast  Level FlightAware Approximate
Thu 04:19:00 PM 40.3620 -75.3806 155° Southeast  Level FlightAware Approximate
Thu 04:19:44 PM 44.4436 -73.2892 192° South 233 268 4,100  Level Boston Center
Thu 04:20:00 PM 40.2546 -75.3189 159° South  Level FlightAware Approximate
Thu 04:20:44 PM 44.3622 -73.3142 192° South 263 303 6,500  Level Boston Center
Thu 04:21:00 PM 40.1467 -75.2589 153° Southeast  Level FlightAware Approximate
Thu 04:21:44 PM 44.2850 -73.3392 193° South 281 323 8,600  Level Boston Center
Thu 04:22:00 PM 40.0401 -75.1951 159° South  Level FlightAware Approximate
Thu 04:22:44 PM 44.2056 -73.3639 193° South 286 329 10,800  Level Boston Center
Thu 04:23:00 PM 39.9767 -75.1163 75° East  Level FlightAware Approximate
Thu 04:23:44 PM 44.1178 -73.3914 193° South 308 354 12,500  Level Boston Center
Thu 04:24:00 PM 40.0037 -74.9685 72° East  Level FlightAware Approximate
Thu 04:24:44 PM 44.0114 -73.4217 192° South 345 397 14,600  Level Boston Center
Thu 04:25:44 PM 43.9131 -73.4544 194° South 361 415 16,400 1,750 Climbing Boston Center
Thu 04:26:44 PM 43.8086 -73.4872 193° South 374 430 18,100 1,400 Climbing Boston Center
Thu 04:27:44 PM 43.7061 -73.5172 192° South 374 430 19,200 1,250 Climbing Boston Center
Thu 04:28:44 PM 43.5975 -73.5467 191° South 384 442 20,600 1,250 Climbing Boston Center
Thu 04:29:44 PM 43.4908 -73.5792 192° South 395 455 21,700 1,150 Climbing Boston Center
Thu 04:30:44 PM 43.3803 -73.6114 192° South 400 460 22,900 1,050 Climbing Boston Center
Thu 04:31:44 PM 43.2672 -73.6461 193° South 405 466 23,800 500 Climbing Boston Center
Thu 04:32:56 PM 43.1544 -73.6781 192° South 416 479 24,000 91 Climbing Boston Center
Thu 04:33:56 PM 43.0206 -73.7236 194° South 416 479 24,000  Level Boston Center
Thu 04:34:56 PM 42.9097 -73.7553 192° South 411 473 24,000  Level Boston Center
Thu 04:35:56 PM 42.8008 -73.7900 193° South 406 467 24,000  Level Boston Center
Thu 04:36:56 PM 42.7167 -73.8644 213° Southwest 374 430 24,000  Level Boston Center
Thu 04:37:56 PM 42.6589 -73.9844 237° Southwest 369 425 24,000  Level Boston Center
Thu 04:39:08 PM 42.5986 -74.1069 236° Southwest 382 440 24,000  Level Boston Center
Thu 04:40:08 PM 42.5319 -74.2517 238° Southwest 387 445 24,000 -133 Level Boston Center
Thu 04:42:00 PM 42.4302 -74.4394 235° Southwest  Level FlightAware Approximate
Thu 04:45:08 PM 42.3028 -74.8122 228° Southwest 359 413 23,200  Level Boston Center
Thu 04:46:58 PM 42.1494 -74.9556 188° South 359 413 21,100 -1,123 Descending New York Center
Thu 04:47:00 PM 42.1327 -74.8433 188° South  Level Estimated
Thu 04:47:59 PM 42.0761 -75.0289 217° Southwest 359 413 20,000  Level New York Center
Thu 04:48:59 PM 41.9961 -75.1047 215° Southwest 359 413 19,000 -337 Descending New York Center
Thu 04:49:00 PM 42.0079 -75.0723 210° Southwest  Level FlightAware Approximate
Thu 04:50:00 PM 41.9331 -75.1420 228° Southwest  Level FlightAware Approximate
Thu 04:50:57 PM 41.8244 -75.2494 212° Southwest 354 407 19,000  Level New York Center
Thu 04:51:57 PM 41.7361 -75.3214 211° Southwest 354 407 19,000 -744 Level New York Center
Thu 04:52:58 PM 41.6589 -75.3797 209° Southwest 354 407 17,500 -1,934 Descending New York Center
Thu 04:53:58 PM 41.5686 -75.4542 212° Southwest 354 407 15,100 -2,269 Descending New York Center
Thu 04:54:00 PM 41.4950 -74.9583 188° South  Level Estimated
Thu 04:54:57 PM 41.4892 -75.5178 211° Southwest 354 407 13,000  Level New York Center
Thu 04:55:57 PM 41.4094 -75.5811 211° Southwest 348 400 12,000 -496 Descending New York Center
Thu 04:56:58 PM 41.3383 -75.6369 211° Southwest 336 387 12,000  Level New York Center
Thu 04:57:58 PM 41.2572 -75.6864 205° Southwest 336 387 12,000  Level New York Center
Thu 04:58:59 PM 41.1717 -75.6883 181° South 313 360 12,000  Level New York Center
Thu 04:59:59 PM 41.0761 -75.6869 179° South 313 360 12,000  Level New York Center
Thu 05:00:57 PM 40.9883 -75.6889 181° South 313 360 12,000  Level New York Center
Thu 05:01:58 PM 40.9072 -75.6856 178° South 318 366 12,000  Level New York Center
Thu 05:02:58 PM 40.8197 -75.6875 181° South 318 366 12,000  Level New York Center
Thu 05:03:58 PM 40.7239 -75.6861 179° South 318 366 12,000  Level New York Center
Thu 05:04:59 PM 40.6364 -75.6853 180° South 318 366 12,000  Level New York Center
Thu 05:05:59 PM 40.5669 -75.6503 159° South 292 336 12,000 -252 Level New York Center
Thu 05:06:58 PM 40.5186 -75.5622 126° Southeast 287 330 11,500 -908 Descending New York Center
Thu 05:07:58 PM 40.4703 -75.4689 124° Southeast 287 330 10,200 -1,160 Descending New York Center
Thu 05:08:57 PM 40.4025 -75.4397 162° South 255 293 9,200 -1,261 Descending New York Center
Thu 05:09:57 PM 40.3308 -75.4622 193° South 284 327 7,700 -1,091 Descending New York Center
Thu 05:10:58 PM 40.2569 -75.4869 194° South 279 321 7,000 -443 Descending New York Center
Thu 05:11:59 PM 40.1767 -75.5114 193° South 284 327 6,800 -857 Descending New York Center
Thu 05:12:57 PM 40.1250 -75.4508 138° Southeast 231 266 5,300 -1,424 Descending New York Center
Thu 05:13:57 PM 40.0686 -75.4011 146° Southeast 231 266 4,000 -645 Descending New York Center
Thu 05:14:58 PM 40.0108 -75.3808 165° South 243 280 4,000  Level New York Center
Thu 05:15:59 PM 39.9575 -75.3611 164° South 227 261 4,000  Level New York Center
Thu 05:16:27 PM 39.9333 -75.3500 161° South 198 228 4,000  Level Philadelphia TRACON
Thu 05:17:21 PM 39.8833 -75.3333 166° South 202 232 4,000  Level Philadelphia TRACON
Thu 05:18:15 PM 39.8333 -75.3000 153° Southeast 199 229 4,000  Level Philadelphia TRACON
Thu 05:19:15 PM 39.7833 -75.2833 166° South 198 228 4,000  Level Philadelphia TRACON
Thu 05:20:27 PM 39.7167 -75.2667 169° South 193 222 4,000  Level Philadelphia TRACON
Thu 05:21:15 PM 39.6833 -75.2500 159° South 181 208 4,000 -111 Level Philadelphia TRACON
Thu 05:22:15 PM 39.6333 -75.2167 153° Southeast 184 212 3,800 -636 Descending Philadelphia TRACON
Thu 05:23:27 PM 39.6667 -75.1833 38° Northeast 175 201 2,600 -1,000 Descending Philadelphia TRACON

Login

Don't have an account? Register now (free) for customized features, flight alerts, and more!